createdAt,value
2023-05-12T00:02:17.563Z,40.37
2023-05-12T00:04:44.303Z,41.69
2023-05-12T00:07:10.972Z,41.79
2023-05-12T00:09:37.758Z,41.28
2023-05-12T00:12:04.680Z,41.70
2023-05-12T00:14:31.274Z,41.05
2023-05-12T00:16:57.806Z,41.10
2023-05-12T00:19:24.452Z,41.77
2023-05-12T00:21:50.992Z,41.73
2023-05-12T00:24:17.515Z,41.27
2023-05-12T00:26:44.133Z,41.64
2023-05-12T00:29:10.668Z,41.53
2023-05-12T00:31:37.229Z,43.00
2023-05-12T00:34:03.825Z,41.88
2023-05-12T00:36:30.476Z,41.67
2023-05-12T00:38:57.157Z,41.06
2023-05-12T00:41:24.297Z,40.77
2023-05-12T00:43:50.906Z,40.68
2023-05-12T00:46:18.043Z,41.44
2023-05-12T00:48:46.193Z,40.47
2023-05-12T00:51:13.439Z,39.70
2023-05-12T00:53:48.400Z,39.76
2023-05-12T00:56:18.978Z,39.96
2023-05-12T00:58:47.520Z,39.33
2023-05-12T01:01:15.362Z,39.70
2023-05-12T01:03:43.496Z,39.91
2023-05-12T01:06:13.788Z,39.22
2023-05-12T01:08:42.102Z,39.31
2023-05-12T01:11:09.800Z,38.86
2023-05-12T01:13:37.565Z,39.32
2023-05-12T01:16:07.508Z,38.80
2023-05-12T01:18:37.769Z,39.93
2023-05-12T01:21:07.084Z,40.01
2023-05-12T01:23:40.156Z,39.81
2023-05-12T01:26:07.833Z,38.98
2023-05-12T01:28:37.568Z,38.73
2023-05-12T01:31:07.926Z,37.98
2023-05-12T01:33:38.319Z,38.18
2023-05-12T01:36:05.653Z,38.00
2023-05-12T01:38:32.980Z,38.24
2023-05-12T01:40:59.668Z,38.00
2023-05-12T01:43:26.209Z,37.71
2023-05-12T01:45:52.975Z,37.42
2023-05-12T01:48:19.597Z,37.41
2023-05-12T01:50:46.501Z,37.04
2023-05-12T01:53:18.696Z,36.87
2023-05-12T01:55:45.612Z,36.98
2023-05-12T01:58:13.521Z,36.80
2023-05-12T02:00:40.121Z,37.00
2023-05-12T02:03:12.990Z,37.43
2023-05-12T02:05:39.598Z,37.74
2023-05-12T02:08:07.192Z,38.21
2023-05-12T02:10:33.778Z,38.09
2023-05-12T02:13:00.354Z,37.94
2023-05-12T02:15:27.684Z,37.68
2023-05-12T02:17:55.539Z,37.49
2023-05-12T02:20:23.511Z,38.18
2023-05-12T02:22:50.192Z,38.33
2023-05-12T02:25:16.909Z,38.42
2023-05-12T02:27:45.004Z,38.07
2023-05-12T02:30:12.048Z,38.58
2023-05-12T02:32:38.654Z,38.67
2023-05-12T02:35:07.483Z,37.90
2023-05-12T02:37:34.766Z,37.62
2023-05-12T02:40:01.322Z,38.08
2023-05-12T02:42:33.651Z,38.44
2023-05-12T02:45:00.303Z,37.56
2023-05-12T02:47:26.858Z,37.98
2023-05-12T02:49:55.485Z,37.55
2023-05-12T02:52:22.510Z,37.47
2023-05-12T02:54:49.181Z,37.38
2023-05-12T02:57:15.776Z,36.89
2023-05-12T02:59:42.381Z,37.79
2023-05-12T03:02:09.075Z,37.40
2023-05-12T03:04:36.872Z,38.16
2023-05-12T03:07:03.941Z,37.75
2023-05-12T03:09:30.805Z,37.77
2023-05-12T03:11:57.535Z,37.41
2023-05-12T03:14:26.106Z,36.85
2023-05-12T03:16:52.738Z,37.21
2023-05-12T03:19:19.337Z,38.19
2023-05-12T03:21:46.027Z,38.20
2023-05-12T03:24:12.562Z,37.95
2023-05-12T03:26:39.147Z,37.54
2023-05-12T03:29:05.709Z,37.05
2023-05-12T03:31:32.599Z,37.03
2023-05-12T03:33:59.404Z,37.52
2023-05-12T03:36:26.584Z,38.20
2023-05-12T03:38:53.172Z,37.85
2023-05-12T03:41:19.754Z,37.40
2023-05-12T03:43:46.544Z,37.28
2023-05-12T03:46:13.703Z,37.42
2023-05-12T03:48:40.352Z,37.84
2023-05-12T03:51:07.197Z,37.97
2023-05-12T03:53:33.794Z,38.49
2023-05-12T03:56:05.062Z,38.76
2023-05-12T03:58:32.729Z,37.93
2023-05-12T04:01:01.438Z,37.42
2023-05-12T04:03:28.901Z,37.09
2023-05-12T04:06:00.104Z,37.35
2023-05-12T04:08:27.337Z,37.19
2023-05-12T04:10:58.630Z,37.73
2023-05-12T04:13:25.913Z,38.38
2023-05-12T04:15:56.727Z,38.20
2023-05-12T04:18:24.819Z,37.67
2023-05-12T04:20:51.786Z,37.71
2023-05-12T04:23:18.444Z,37.29
2023-05-12T04:25:46.264Z,38.37
2023-05-12T04:28:13.031Z,38.18
2023-05-12T04:30:41.976Z,37.77
2023-05-12T04:33:09.952Z,37.00
2023-05-12T04:35:37.506Z,37.01
2023-05-12T04:38:04.756Z,38.30
2023-05-12T04:40:34.035Z,37.89
2023-05-12T04:43:01.575Z,37.70
2023-05-12T04:45:30.158Z,37.46
2023-05-12T04:47:56.772Z,37.68
2023-05-12T04:50:23.699Z,37.62
2023-05-12T04:52:50.310Z,38.53
2023-05-12T04:55:17.014Z,38.07
2023-05-12T04:57:44.267Z,38.62
2023-05-12T05:00:11.847Z,37.91
2023-05-12T05:02:39.084Z,37.61
2023-05-12T05:05:06.490Z,37.88
2023-05-12T05:07:33.074Z,37.49
2023-05-12T05:10:00.047Z,37.69
2023-05-12T05:12:26.713Z,37.76
2023-05-12T05:14:54.334Z,37.62
2023-05-12T05:17:20.927Z,36.53
2023-05-12T05:19:57.333Z,33.90
2023-05-12T05:22:27.832Z,32.20
2023-05-12T05:24:54.828Z,31.93
2023-05-12T05:27:21.410Z,31.93
2023-05-12T05:29:48.169Z,31.70
2023-05-12T05:32:14.887Z,32.26
2023-05-12T05:34:43.243Z,32.73
2023-05-12T05:37:10.912Z,32.55
2023-05-12T05:39:38.064Z,32.56
2023-05-12T05:42:04.818Z,33.31
2023-05-12T05:44:31.845Z,34.16
2023-05-12T05:46:59.530Z,33.69
2023-05-12T05:49:27.275Z,32.56
2023-05-12T05:51:55.264Z,32.09
2023-05-12T05:54:25.468Z,30.97
2023-05-12T05:56:52.232Z,30.58
2023-05-12T05:59:18.864Z,30.26
2023-05-12T06:01:45.977Z,30.66
2023-05-12T06:04:12.676Z,30.44
2023-05-12T06:06:39.324Z,30.58
2023-05-12T06:09:06.199Z,32.05
2023-05-12T06:11:33.320Z,32.11
2023-05-12T06:13:59.818Z,31.75
2023-05-12T06:16:26.679Z,32.05
2023-05-12T06:18:53.386Z,31.67
2023-05-12T06:21:21.142Z,32.24
2023-05-12T06:23:47.860Z,31.67
2023-05-12T06:26:14.584Z,32.13
2023-05-12T06:28:41.187Z,31.82
2023-05-12T06:31:08.641Z,32.45
2023-05-12T06:33:35.429Z,32.58
2023-05-12T06:36:02.164Z,33.64
2023-05-12T06:38:28.742Z,33.42
2023-05-12T06:40:55.531Z,33.64
2023-05-12T06:43:23.300Z,33.73
2023-05-12T06:45:54.341Z,33.16
2023-05-12T06:48:20.914Z,33.42
2023-05-12T06:50:47.444Z,33.65
2023-05-12T06:53:14.413Z,33.34
2023-05-12T06:55:43.778Z,33.75
2023-05-12T06:58:10.297Z,33.70
2023-05-12T07:00:37.221Z,33.14
2023-05-12T07:03:04.154Z,32.69
2023-05-12T07:05:30.983Z,32.70
2023-05-12T07:07:57.538Z,32.11
2023-05-12T07:10:24.037Z,32.04
2023-05-12T07:12:50.628Z,32.83
2023-05-12T07:15:17.622Z,33.00
2023-05-12T07:17:44.238Z,32.17
2023-05-12T07:20:11.261Z,33.17
2023-05-12T07:22:39.074Z,32.92
2023-05-12T07:25:07.529Z,32.61
2023-05-12T07:27:34.299Z,32.45
2023-05-12T07:30:01.337Z,32.08
2023-05-12T07:32:28.030Z,31.46
2023-05-12T07:34:54.572Z,31.75
2023-05-12T07:37:21.534Z,32.40
2023-05-12T07:39:48.559Z,30.87
2023-05-12T07:42:15.639Z,30.92
2023-05-12T07:44:42.304Z,31.27
2023-05-12T07:47:09.282Z,31.34
2023-05-12T07:49:35.837Z,30.63
2023-05-12T07:52:03.033Z,30.18
2023-05-12T07:54:29.590Z,30.19
2023-05-12T07:56:56.143Z,30.50
2023-05-12T07:59:23.030Z,30.90
2023-05-12T08:01:49.786Z,31.17
2023-05-12T08:04:16.419Z,30.89
2023-05-12T08:06:42.953Z,30.38
2023-05-12T08:09:09.478Z,30.42
2023-05-12T08:11:36.263Z,30.64
2023-05-12T08:14:03.944Z,30.77
2023-05-12T08:16:30.556Z,30.67
2023-05-12T08:18:58.649Z,31.48
2023-05-12T08:21:25.646Z,29.96
2023-05-12T08:23:52.169Z,30.06
2023-05-12T08:26:18.768Z,30.63
2023-05-12T08:28:45.828Z,29.36
2023-05-12T08:31:12.658Z,29.03
2023-05-12T08:33:39.723Z,28.68
2023-05-12T08:36:06.298Z,28.96
2023-05-12T08:38:33.059Z,30.51
2023-05-12T08:41:13.212Z,29.08
2023-05-12T08:43:44.624Z,29.20
2023-05-12T08:46:14.536Z,29.26
2023-05-12T08:48:41.369Z,29.75
2023-05-12T08:51:11.693Z,29.93
2023-05-12T08:53:40.251Z,30.51
2023-05-12T08:58:42.079Z,29.80
2023-05-12T09:01:12.187Z,28.80
2023-05-12T09:03:39.314Z,30.02
2023-05-12T09:06:06.744Z,29.22
2023-05-12T09:08:34.910Z,29.70
2023-05-12T09:11:02.855Z,29.04
2023-05-12T09:13:54.789Z,28.63
2023-05-12T09:16:26.522Z,29.05
2023-05-12T09:18:55.494Z,27.83
2023-05-12T09:21:22.643Z,27.52
2023-05-12T09:23:56.996Z,27.52
2023-05-12T09:26:25.884Z,27.42
2023-05-12T09:28:53.877Z,27.59
2023-05-12T09:31:22.726Z,27.45
2023-05-12T09:33:50.948Z,26.67
2023-05-12T09:36:19.657Z,27.65
2023-05-12T09:38:46.236Z,27.66
2023-05-12T09:41:13.242Z,27.38
2023-05-12T09:43:46.363Z,27.09
2023-05-12T09:46:14.977Z,26.94
2023-05-12T09:48:41.890Z,26.41
2023-05-12T09:51:10.760Z,27.53
2023-05-12T09:53:42.982Z,26.83
2023-05-12T09:56:11.983Z,26.17
2023-05-12T09:58:47.172Z,25.45
2023-05-12T10:01:22.824Z,25.53
2023-05-12T10:03:57.027Z,26.11
2023-05-12T10:06:29.986Z,26.07
2023-05-12T10:09:15.921Z,26.69
2023-05-12T10:11:44.027Z,27.70
2023-05-12T10:14:11.252Z,27.28
2023-05-12T10:16:38.329Z,26.53
2023-05-12T10:19:05.921Z,25.58
2023-05-12T10:21:33.472Z,26.94
2023-05-12T10:24:00.771Z,26.00
2023-05-12T10:26:28.560Z,26.22
2023-05-12T10:28:55.420Z,26.06
2023-05-12T10:31:23.445Z,25.83
2023-05-12T10:33:57.806Z,25.00
2023-05-12T10:36:24.706Z,24.59
2023-05-12T10:38:51.859Z,25.21
2023-05-12T10:41:29.923Z,25.47
2023-05-12T10:43:56.648Z,26.02
2023-05-12T10:46:26.307Z,26.09
2023-05-12T10:49:10.077Z,25.11
2023-05-12T10:51:42.975Z,24.49
2023-05-12T10:54:11.782Z,25.88
2023-05-12T10:56:38.549Z,24.75
2023-05-12T10:59:17.240Z,24.25
2023-05-12T11:02:02.183Z,24.57
2023-05-12T11:04:43.254Z,24.78
2023-05-12T11:07:12.633Z,25.32
2023-05-12T11:09:56.039Z,24.64
2023-05-12T11:12:28.864Z,23.73
2023-05-12T11:14:55.530Z,24.01
2023-05-12T11:17:22.791Z,24.41
2023-05-12T11:19:50.488Z,22.64
2023-05-12T11:22:19.987Z,21.10
2023-05-12T11:24:47.865Z,21.95
2023-05-12T11:27:17.202Z,22.62
2023-05-12T11:29:46.947Z,23.21
2023-05-12T11:32:15.658Z,23.69
2023-05-12T11:34:42.798Z,23.65
2023-05-12T11:37:09.348Z,24.75
2023-05-12T11:39:36.349Z,24.84
2023-05-12T11:42:12.026Z,23.79
2023-05-12T11:44:49.621Z,25.20
2023-05-12T11:47:19.692Z,24.18
2023-05-12T11:49:51.155Z,24.67
2023-05-12T11:52:19.749Z,23.24
2023-05-12T11:54:57.276Z,23.00
2023-05-12T11:57:38.296Z,22.80
2023-05-12T12:00:07.070Z,22.61
2023-05-12T12:02:36.649Z,21.06
2023-05-12T12:05:03.864Z,22.23
2023-05-12T12:07:35.435Z,22.02
2023-05-12T12:10:31.779Z,22.58
2023-05-12T12:13:00.431Z,23.28
2023-05-12T12:15:28.056Z,22.68
2023-05-12T12:17:54.788Z,22.75
2023-05-12T12:20:21.886Z,22.80
2023-05-12T12:22:48.470Z,22.55
2023-05-12T12:25:15.028Z,22.66
2023-05-12T12:27:42.049Z,22.84
2023-05-12T12:30:09.572Z,22.33
2023-05-12T12:32:36.230Z,22.85
2023-05-12T12:35:06.272Z,22.80
2023-05-12T12:37:33.067Z,22.98
2023-05-12T12:40:00.083Z,23.61
2023-05-12T12:42:26.847Z,23.11
2023-05-12T12:44:53.695Z,21.77
2023-05-12T12:47:20.321Z,22.00
2023-05-12T12:49:47.017Z,20.65
2023-05-12T12:52:13.548Z,21.21
2023-05-12T12:54:40.162Z,19.76
2023-05-12T12:57:07.065Z,19.76
2023-05-12T12:59:33.694Z,20.55
2023-05-12T13:02:01.344Z,19.56
2023-05-12T13:04:27.941Z,19.82
2023-05-12T13:06:54.486Z,19.92
2023-05-12T13:09:21.039Z,19.30
2023-05-12T13:11:47.900Z,21.32
2023-05-12T13:14:14.555Z,19.81
2023-05-12T13:16:41.181Z,21.01
2023-05-12T13:19:08.368Z,22.01
2023-05-12T13:21:35.030Z,21.14
2023-05-12T13:24:01.648Z,21.59
2023-05-12T13:26:28.355Z,21.25
2023-05-12T13:28:54.901Z,20.69
2023-05-12T13:31:21.566Z,20.46
2023-05-12T13:33:48.190Z,19.95
2023-05-12T13:36:14.757Z,20.28
2023-05-12T13:38:43.205Z,21.57
2023-05-12T13:41:09.749Z,19.96
2023-05-12T13:43:36.382Z,20.26
2023-05-12T13:46:03.212Z,19.77
2023-05-12T13:48:29.768Z,21.18
2023-05-12T13:50:56.454Z,20.26
2023-05-12T13:53:22.976Z,20.99
2023-05-12T13:55:49.738Z,20.89
2023-05-12T13:58:16.408Z,21.28
2023-05-12T14:00:42.917Z,21.23
2023-05-12T14:03:10.326Z,21.65
2023-05-12T14:05:36.901Z,21.07
2023-05-12T14:08:03.831Z,21.59
2023-05-12T14:10:32.349Z,20.65
2023-05-12T14:12:58.916Z,21.30
2023-05-12T14:15:36.164Z,20.39
2023-05-12T14:18:11.524Z,20.20
2023-05-12T14:20:38.135Z,20.24
2023-05-12T14:23:04.679Z,21.30
2023-05-12T14:25:31.278Z,21.39
2023-05-12T14:27:58.678Z,20.84
2023-05-12T14:30:25.264Z,21.18
2023-05-12T14:32:53.319Z,21.28
2023-05-12T14:35:20.253Z,20.86
2023-05-12T14:37:46.945Z,21.41
2023-05-12T14:40:14.076Z,20.85
2023-05-12T14:42:40.678Z,20.69
2023-05-12T14:45:07.984Z,20.34
2023-05-12T14:47:34.604Z,21.01
2023-05-12T14:50:01.149Z,21.03
2023-05-12T14:52:27.824Z,21.24
2023-05-12T14:54:54.473Z,21.49
2023-05-12T14:57:21.654Z,21.37
2023-05-12T14:59:48.637Z,20.89
2023-05-12T15:02:15.225Z,21.43
2023-05-12T15:04:42.125Z,21.06
2023-05-12T15:07:08.683Z,20.70
2023-05-12T15:09:35.288Z,20.74
2023-05-12T15:12:03.825Z,20.86
2023-05-12T15:14:30.374Z,20.61
2023-05-12T15:16:57.018Z,20.45
2023-05-12T15:19:23.633Z,20.97
2023-05-12T15:21:50.230Z,20.70
2023-05-12T15:24:17.247Z,21.52
2023-05-12T15:26:43.839Z,20.27
2023-05-12T15:29:10.535Z,20.48
2023-05-12T15:31:37.133Z,20.06
2023-05-12T15:34:03.790Z,20.59
2023-05-12T15:36:30.862Z,20.04
2023-05-12T15:38:57.517Z,19.79
2023-05-12T15:41:24.083Z,20.10
2023-05-12T15:43:50.611Z,20.78
2023-05-12T15:46:17.614Z,20.67
2023-05-12T15:48:44.519Z,20.41
2023-05-12T15:51:11.076Z,21.76
2023-05-12T15:53:37.592Z,21.24
2023-05-12T15:56:05.164Z,21.34
2023-05-12T15:58:31.891Z,20.84
2023-05-12T16:00:59.026Z,21.06
2023-05-12T16:03:25.810Z,21.25
2023-05-12T16:05:52.614Z,20.69
2023-05-12T16:08:20.329Z,20.28
2023-05-12T16:10:46.937Z,20.51
2023-05-12T16:13:14.882Z,20.52
2023-05-12T16:15:41.457Z,19.97
2023-05-12T16:18:10.855Z,20.72
2023-05-12T16:20:38.701Z,19.68
2023-05-12T16:23:05.291Z,20.12
2023-05-12T16:25:31.872Z,20.61
2023-05-12T16:27:58.405Z,21.95
2023-05-12T16:30:25.079Z,22.17
2023-05-12T16:32:51.695Z,21.93
2023-05-12T16:35:18.786Z,21.66
2023-05-12T16:37:45.826Z,21.74
2023-05-12T16:40:12.562Z,21.70
2023-05-12T16:42:39.184Z,21.16
2023-05-12T16:45:06.723Z,20.78
2023-05-12T16:47:33.330Z,20.95
2023-05-12T16:50:00.141Z,20.69
2023-05-12T16:52:27.002Z,20.95
2023-05-12T16:54:55.989Z,20.99
2023-05-12T16:57:23.886Z,20.17
2023-05-12T16:59:51.499Z,20.51
2023-05-12T17:02:18.601Z,20.22
2023-05-12T17:04:46.422Z,19.94
2023-05-12T17:07:13.299Z,20.14
2023-05-12T17:09:40.582Z,20.15
2023-05-12T17:12:08.259Z,20.72
2023-05-12T17:14:34.935Z,20.86
2023-05-12T17:17:02.204Z,20.67
2023-05-12T17:19:28.907Z,20.78
2023-05-12T17:21:55.546Z,20.99
2023-05-12T17:24:22.351Z,21.32
2023-05-12T17:26:48.983Z,20.69
2023-05-12T17:29:16.097Z,20.42
2023-05-12T17:31:42.918Z,21.35
2023-05-12T17:34:10.121Z,21.26
2023-05-12T17:36:37.294Z,21.49
2023-05-12T17:39:04.496Z,21.72
2023-05-12T17:41:31.097Z,21.51
2023-05-12T17:43:57.693Z,21.40
2023-05-12T17:46:24.450Z,20.65
2023-05-12T17:48:51.273Z,20.33
2023-05-12T17:51:18.068Z,21.22
2023-05-12T17:53:44.840Z,20.68
2023-05-12T17:56:11.670Z,20.90
2023-05-12T17:58:38.500Z,21.15
2023-05-12T18:01:05.437Z,21.29
2023-05-12T18:03:32.853Z,21.04
2023-05-12T18:05:59.585Z,21.19
2023-05-12T18:08:27.103Z,21.89
2023-05-12T18:10:53.979Z,21.61
2023-05-12T18:13:20.691Z,22.48
2023-05-12T18:15:49.630Z,22.23
2023-05-12T18:18:16.723Z,23.34
2023-05-12T18:20:43.680Z,24.46
2023-05-12T18:23:10.522Z,25.50
2023-05-12T18:25:37.424Z,25.07
2023-05-12T18:28:06.260Z,25.39
2023-05-12T18:30:33.329Z,26.87
2023-05-12T18:33:00.340Z,26.67
2023-05-12T18:35:27.286Z,28.73
2023-05-12T18:37:54.445Z,27.96
2023-05-12T18:40:21.339Z,28.04
2023-05-12T18:42:48.143Z,28.08
2023-05-12T18:45:15.582Z,28.59
2023-05-12T18:47:42.327Z,27.77
2023-05-12T18:50:09.861Z,28.66
2023-05-12T18:52:37.042Z,28.60
2023-05-12T18:55:03.998Z,28.55
2023-05-12T18:57:31.549Z,28.76
2023-05-12T18:59:58.439Z,27.50
2023-05-12T19:02:25.415Z,27.95
2023-05-12T19:04:52.482Z,27.63
2023-05-12T19:07:19.674Z,27.84
2023-05-12T19:09:46.410Z,27.73
2023-05-12T19:12:13.138Z,27.47
2023-05-12T19:14:40.702Z,26.89
2023-05-12T19:17:07.716Z,27.26
2023-05-12T19:19:34.862Z,27.84
2023-05-12T19:22:04.064Z,27.99
2023-05-12T19:24:30.903Z,27.78
2023-05-12T19:26:57.612Z,27.31
2023-05-12T19:29:24.800Z,27.04
2023-05-12T19:31:53.161Z,27.88
2023-05-12T19:34:20.072Z,27.59
2023-05-12T19:36:46.914Z,27.47
2023-05-12T19:39:13.914Z,28.04
2023-05-12T19:41:41.078Z,27.89
2023-05-12T19:44:07.899Z,27.84
2023-05-12T19:46:34.669Z,27.59
2023-05-12T19:49:02.454Z,28.55
2023-05-12T19:51:29.584Z,27.86
2023-05-12T19:53:56.329Z,28.13
2023-05-12T19:56:23.215Z,28.44
2023-05-12T19:58:50.423Z,28.63
2023-05-12T20:01:17.368Z,28.86
2023-05-12T20:03:44.154Z,29.02
2023-05-12T20:06:11.052Z,29.11
2023-05-12T20:08:37.976Z,29.69
2023-05-12T20:11:04.691Z,29.14
2023-05-12T20:13:31.667Z,29.23
2023-05-12T20:15:59.549Z,29.43
2023-05-12T20:18:27.519Z,28.99
2023-05-12T20:20:55.607Z,29.28
2023-05-12T20:23:22.741Z,28.66
2023-05-12T20:25:49.490Z,28.20
2023-05-12T20:28:16.292Z,29.11
2023-05-12T20:30:43.254Z,28.15
2023-05-12T20:33:10.039Z,29.25
2023-05-12T20:35:36.910Z,29.50
2023-05-12T20:38:03.577Z,29.84
2023-05-12T20:40:30.280Z,30.12
2023-05-12T20:42:57.168Z,30.39
2023-05-12T20:45:24.218Z,29.39
2023-05-12T20:47:51.129Z,29.50
2023-05-12T20:50:17.853Z,29.67
2023-05-12T20:52:47.187Z,29.55
2023-05-12T20:55:13.840Z,30.44
2023-05-12T20:57:41.681Z,30.12
2023-05-12T21:00:13.467Z,29.84
2023-05-12T21:02:40.110Z,30.29
2023-05-12T21:05:07.355Z,30.62
2023-05-12T21:07:33.949Z,30.07
2023-05-12T21:10:00.884Z,30.65
2023-05-12T21:12:27.606Z,30.15
2023-05-12T21:14:54.122Z,30.32
2023-05-12T21:17:21.413Z,29.65
2023-05-12T21:19:47.991Z,30.69
2023-05-12T21:22:15.717Z,30.71
2023-05-12T21:24:42.886Z,29.66
2023-05-12T21:27:09.446Z,29.93
2023-05-12T21:29:37.085Z,30.13
2023-05-12T21:32:04.141Z,29.45
2023-05-12T21:34:33.472Z,29.80
2023-05-12T21:37:00.732Z,29.42
2023-05-12T21:39:27.921Z,29.13
2023-05-12T21:41:54.960Z,28.83
2023-05-12T21:44:21.660Z,29.28
2023-05-12T21:46:48.317Z,29.77
2023-05-12T21:49:14.930Z,29.72
2023-05-12T21:51:41.952Z,30.29
2023-05-12T21:54:08.839Z,29.86
2023-05-12T21:56:35.432Z,30.35
2023-05-12T21:59:01.992Z,30.03
2023-05-12T22:01:29.672Z,29.81
2023-05-12T22:03:59.385Z,30.80
2023-05-12T22:06:26.123Z,30.88
2023-05-12T22:08:53.927Z,31.48
2023-05-12T22:11:21.495Z,31.19
2023-05-12T22:13:48.140Z,32.13
2023-05-12T22:16:15.514Z,31.13
2023-05-12T22:18:45.597Z,30.92
2023-05-12T22:21:12.715Z,31.48
2023-05-12T22:23:39.731Z,30.17
2023-05-12T22:26:06.678Z,30.96
2023-05-12T22:28:33.305Z,30.33
2023-05-12T22:31:00.207Z,30.25
2023-05-12T22:33:26.954Z,30.41
2023-05-12T22:35:53.535Z,29.74
2023-05-12T22:38:20.141Z,29.92
2023-05-12T22:40:46.974Z,29.22
2023-05-12T22:43:13.746Z,29.63
2023-05-12T22:45:40.483Z,28.65
2023-05-12T22:48:07.482Z,29.22
2023-05-12T22:50:34.063Z,29.03
2023-05-12T22:53:01.079Z,28.67
2023-05-12T22:55:30.736Z,28.90
2023-05-12T22:57:58.037Z,29.25
2023-05-12T23:00:24.577Z,29.45
2023-05-12T23:02:51.803Z,29.24
2023-05-12T23:05:18.950Z,29.15
2023-05-12T23:07:45.572Z,28.89
2023-05-12T23:10:12.235Z,28.46
2023-05-12T23:12:39.477Z,28.53
2023-05-12T23:15:07.597Z,28.55
2023-05-12T23:17:34.224Z,29.29
2023-05-12T23:20:00.902Z,29.31
2023-05-12T23:22:27.515Z,29.56
2023-05-12T23:24:55.372Z,29.18
2023-05-12T23:27:21.958Z,30.13
2023-05-12T23:29:48.584Z,29.38
2023-05-12T23:32:15.321Z,29.41
2023-05-12T23:34:42.721Z,29.20
2023-05-12T23:37:09.541Z,29.53
2023-05-12T23:39:36.110Z,29.62
2023-05-12T23:42:03.734Z,29.09
2023-05-12T23:44:30.457Z,29.16
2023-05-12T23:46:57.070Z,29.04
2023-05-12T23:49:23.892Z,29.73
2023-05-12T23:51:50.906Z,29.92
2023-05-12T23:54:17.439Z,30.05
2023-05-12T23:56:44.065Z,30.76
2023-05-12T23:59:10.617Z,30.71
